createdAt,value
2022-07-26T00:00:36.474Z,23.07
2022-07-26T00:01:43.950Z,23.05
2022-07-26T00:02:47.440Z,23.02
2022-07-26T00:05:57.223Z,22.97
2022-07-26T00:07:03.819Z,22.92
2022-07-26T00:08:03.790Z,22.91
2022-07-26T00:09:03.916Z,22.88
2022-07-26T00:10:03.777Z,22.88
2022-07-26T00:11:07.439Z,22.83
2022-07-26T00:11:56.633Z,22.83
2022-07-26T00:13:03.748Z,22.79
2022-07-26T00:13:56.670Z,22.79
2022-07-26T00:14:56.630Z,22.77
2022-07-26T00:15:56.976Z,22.72
2022-07-26T00:16:56.654Z,22.68
2022-07-26T00:17:56.601Z,22.68
2022-07-26T00:18:56.543Z,22.64
2022-07-26T00:19:56.497Z,22.64
2022-07-26T00:20:57.000Z,22.61
2022-07-26T00:21:56.523Z,22.57
2022-07-26T00:22:56.502Z,22.58
2022-07-26T00:23:56.482Z,22.55
2022-07-26T00:24:56.490Z,22.58
2022-07-26T00:25:56.770Z,22.57
2022-07-26T00:26:56.431Z,22.58
2022-07-26T00:27:56.421Z,22.57
2022-07-26T00:28:56.411Z,22.55
2022-07-26T00:29:56.770Z,22.54
2022-07-26T00:30:56.368Z,22.54
2022-07-26T00:31:56.464Z,22.52
2022-07-26T00:32:56.361Z,22.54
2022-07-26T00:33:56.350Z,22.54
2022-07-26T00:34:56.739Z,22.54
2022-07-26T00:35:56.307Z,22.55
2022-07-26T00:36:56.305Z,22.57
2022-07-26T00:37:56.307Z,22.58
2022-07-26T00:38:56.444Z,22.55
2022-07-26T00:39:56.739Z,22.58
2022-07-26T00:40:56.261Z,22.57
2022-07-26T00:41:56.236Z,22.57
2022-07-26T00:42:56.211Z,22.57
2022-07-26T00:43:56.192Z,22.61
2022-07-26T00:44:56.537Z,22.61
2022-07-26T00:45:56.292Z,22.64
2022-07-26T00:46:56.176Z,22.65
2022-07-26T00:47:56.159Z,22.67
2022-07-26T00:48:56.220Z,22.70
2022-07-26T00:49:56.139Z,22.76
2022-07-26T00:50:56.488Z,22.82
2022-07-26T00:51:56.112Z,22.85
2022-07-26T00:52:56.089Z,22.88
2022-07-26T00:53:56.079Z,22.88
2022-07-26T00:54:56.080Z,22.91
2022-07-26T00:55:56.068Z,22.88
2022-07-26T00:56:56.519Z,22.90
2022-07-26T00:57:56.047Z,22.90
2022-07-26T00:58:56.036Z,22.90
2022-07-26T00:59:56.008Z,22.88
2022-07-26T01:00:56.082Z,22.90
2022-07-26T01:02:03.621Z,22.88
2022-07-26T01:03:04.452Z,22.88
2022-07-26T01:04:04.143Z,22.90
2022-07-26T01:05:03.098Z,22.88
2022-07-26T01:05:55.977Z,22.88
2022-07-26T01:06:56.084Z,22.88
2022-07-26T01:07:56.382Z,22.83
2022-07-26T01:08:55.906Z,22.82
2022-07-26T01:09:55.885Z,22.80
2022-07-26T01:10:55.845Z,22.80
2022-07-26T01:11:55.881Z,22.77
2022-07-26T01:12:55.845Z,22.77
2022-07-26T01:13:56.315Z,22.76
2022-07-26T01:14:55.885Z,22.76
2022-07-26T01:15:55.901Z,22.73
2022-07-26T01:16:55.897Z,22.73
2022-07-26T01:17:55.770Z,22.72
2022-07-26T01:18:55.814Z,22.72
2022-07-26T01:19:55.768Z,22.68
2022-07-26T01:20:55.726Z,22.67
2022-07-26T01:21:55.717Z,22.65
2022-07-26T01:22:55.694Z,22.64
2022-07-26T01:23:56.082Z,22.64
2022-07-26T01:24:55.973Z,22.64
2022-07-26T01:25:55.674Z,22.61
2022-07-26T01:26:55.700Z,22.61
2022-07-26T01:27:55.654Z,22.61
2022-07-26T01:28:56.057Z,22.61
2022-07-26T01:29:55.622Z,22.64
2022-07-26T01:30:55.625Z,22.62
2022-07-26T01:31:55.613Z,22.61
2022-07-26T01:32:56.005Z,22.61
2022-07-26T01:33:55.572Z,22.60
2022-07-26T01:34:55.551Z,22.61
2022-07-26T01:35:55.548Z,22.62
2022-07-26T01:36:55.571Z,22.65
2022-07-26T01:37:55.571Z,22.65
2022-07-26T01:38:55.884Z,22.65
2022-07-26T01:39:55.482Z,22.68
2022-07-26T01:40:55.494Z,22.72
2022-07-26T01:41:55.482Z,22.72
2022-07-26T01:42:55.903Z,22.70
2022-07-26T01:43:55.450Z,22.72
2022-07-26T01:44:55.440Z,22.73
2022-07-26T01:45:55.468Z,22.73
2022-07-26T01:46:55.441Z,22.76
2022-07-26T01:47:55.832Z,22.77
2022-07-26T01:48:55.493Z,22.77
2022-07-26T01:49:55.351Z,22.79
2022-07-26T01:50:55.363Z,22.75
2022-07-26T01:51:55.371Z,22.65
2022-07-26T01:52:55.701Z,22.54
2022-07-26T01:53:58.873Z,22.36
2022-07-26T01:54:55.282Z,22.20
2022-07-26T01:55:55.269Z,22.03
2022-07-26T01:56:55.542Z,21.91
2022-07-26T01:57:55.345Z,21.79
2022-07-26T01:58:55.262Z,21.68
2022-07-26T01:59:55.269Z,21.61
2022-07-26T02:00:55.237Z,21.53
2022-07-26T02:01:55.491Z,21.50
2022-07-26T02:02:55.347Z,21.49
2022-07-26T02:03:55.194Z,21.43
2022-07-26T02:04:55.161Z,21.29
2022-07-26T02:05:55.158Z,21.24
2022-07-26T02:06:55.991Z,21.21
2022-07-26T02:07:55.430Z,21.14
2022-07-26T02:08:55.139Z,21.09
2022-07-26T02:09:55.139Z,20.99
2022-07-26T02:10:55.090Z,20.97
2022-07-26T02:11:55.801Z,20.95
2022-07-26T02:12:55.427Z,20.95
2022-07-26T02:13:55.042Z,20.94
2022-07-26T02:14:55.070Z,20.94
2022-07-26T02:15:55.082Z,20.92
2022-07-26T02:16:55.289Z,20.92
2022-07-26T02:17:55.048Z,20.89
2022-07-26T02:18:54.999Z,20.91
2022-07-26T02:19:54.987Z,20.88
2022-07-26T02:20:54.989Z,20.87
2022-07-26T02:21:55.267Z,20.84
2022-07-26T02:22:54.972Z,20.84
2022-07-26T02:23:54.942Z,20.80
2022-07-26T02:24:54.937Z,20.79
2022-07-26T02:25:54.896Z,20.82
2022-07-26T02:26:55.138Z,20.84
2022-07-26T02:27:54.869Z,20.84
2022-07-26T02:28:54.938Z,20.84
2022-07-26T02:29:54.865Z,20.85
2022-07-26T02:30:54.888Z,20.85
2022-07-26T02:31:55.118Z,20.85
2022-07-26T02:32:54.789Z,20.84
2022-07-26T02:33:55.050Z,20.84
2022-07-26T02:34:54.849Z,20.82
2022-07-26T02:35:54.778Z,20.80
2022-07-26T02:36:55.069Z,20.82
2022-07-26T02:37:55.037Z,20.79
2022-07-26T02:38:54.728Z,20.77
2022-07-26T02:39:54.738Z,20.79
2022-07-26T02:40:54.689Z,20.77
2022-07-26T02:41:54.958Z,20.77
2022-07-26T02:42:54.697Z,20.76
2022-07-26T02:43:54.679Z,20.77
2022-07-26T02:44:54.658Z,20.79
2022-07-26T02:46:01.771Z,20.80
2022-07-26T02:46:55.900Z,20.84
2022-07-26T02:47:54.654Z,20.82
2022-07-26T02:48:54.819Z,20.84
2022-07-26T02:49:54.654Z,20.84
2022-07-26T02:50:54.967Z,20.84
2022-07-26T02:51:56.412Z,20.87
2022-07-26T02:52:54.557Z,20.85
2022-07-26T02:53:54.546Z,20.84
2022-07-26T02:54:54.576Z,20.82
2022-07-26T02:55:54.948Z,20.84
2022-07-26T02:56:54.553Z,20.84
2022-07-26T02:57:54.517Z,20.82
2022-07-26T02:58:54.502Z,20.82
2022-07-26T02:59:54.475Z,20.77
2022-07-26T03:00:54.887Z,20.79
2022-07-26T03:01:54.495Z,20.76
2022-07-26T03:02:54.562Z,20.74
2022-07-26T03:03:54.434Z,20.74
2022-07-26T03:04:54.399Z,20.76
2022-07-26T03:05:54.716Z,20.76
2022-07-26T03:06:54.436Z,20.76
2022-07-26T03:07:54.378Z,20.79
2022-07-26T03:08:54.369Z,20.79
2022-07-26T03:09:54.337Z,20.79
2022-07-26T03:10:54.734Z,20.79
2022-07-26T03:11:54.443Z,20.79
2022-07-26T03:12:54.285Z,20.79
2022-07-26T03:13:54.283Z,20.76
2022-07-26T03:14:54.685Z,20.76
2022-07-26T03:15:54.294Z,20.73
2022-07-26T03:16:54.258Z,20.73
2022-07-26T03:17:54.252Z,20.70
2022-07-26T03:18:54.243Z,20.69
2022-07-26T03:19:54.672Z,20.70
2022-07-26T03:20:54.885Z,20.67
2022-07-26T03:21:54.706Z,20.66
2022-07-26T03:22:54.155Z,20.66
2022-07-26T03:23:54.156Z,20.62
2022-07-26T03:24:54.773Z,20.61
2022-07-26T03:25:54.153Z,20.59
2022-07-26T03:26:54.103Z,20.59
2022-07-26T03:27:54.123Z,20.57
2022-07-26T03:28:54.103Z,20.55
2022-07-26T03:29:54.523Z,20.52
2022-07-26T03:30:54.128Z,20.51
2022-07-26T03:31:54.086Z,20.51
2022-07-26T03:32:54.033Z,20.50
2022-07-26T03:33:54.052Z,20.48
2022-07-26T03:34:54.336Z,20.47
2022-07-26T03:35:54.033Z,20.48
2022-07-26T03:36:54.013Z,20.47
2022-07-26T03:37:53.993Z,20.47
2022-07-26T03:38:54.391Z,20.47
2022-07-26T03:39:54.011Z,20.47
2022-07-26T03:40:53.928Z,20.47
2022-07-26T03:41:53.932Z,20.43
2022-07-26T03:42:53.916Z,20.47
2022-07-26T03:43:54.011Z,20.47
2022-07-26T03:44:54.867Z,20.50
2022-07-26T03:45:54.261Z,20.50
2022-07-26T03:46:54.049Z,20.50
2022-07-26T03:47:53.842Z,20.51
2022-07-26T03:48:53.887Z,20.50
2022-07-26T03:49:53.841Z,20.50
2022-07-26T03:50:54.273Z,20.48
2022-07-26T03:51:54.488Z,20.47
2022-07-26T03:52:54.649Z,20.47
2022-07-26T03:53:55.762Z,20.43
2022-07-26T03:54:53.765Z,20.41
2022-07-26T03:55:53.758Z,20.41
2022-07-26T03:56:55.125Z,20.39
2022-07-26T03:57:53.709Z,20.41
2022-07-26T03:58:53.721Z,20.39
2022-07-26T03:59:53.740Z,20.36
2022-07-26T04:00:53.717Z,20.36
2022-07-26T04:01:54.126Z,20.38
2022-07-26T04:02:53.645Z,20.38
2022-07-26T04:03:54.282Z,20.35
2022-07-26T04:04:54.056Z,20.36
2022-07-26T04:05:53.729Z,20.39
2022-07-26T04:06:53.649Z,20.38
2022-07-26T04:07:54.046Z,20.36
2022-07-26T04:08:53.676Z,20.36
2022-07-26T04:09:54.652Z,20.38
2022-07-26T04:10:53.732Z,20.36
2022-07-26T04:11:53.879Z,20.36
2022-07-26T04:12:53.569Z,20.36
2022-07-26T04:13:53.839Z,20.38
2022-07-26T04:14:53.648Z,20.38
2022-07-26T04:15:53.696Z,20.36
2022-07-26T04:16:53.899Z,20.38
2022-07-26T04:17:53.991Z,20.36
2022-07-26T04:18:53.568Z,20.38
2022-07-26T04:19:53.468Z,20.35
2022-07-26T04:20:53.508Z,20.33
2022-07-26T04:21:53.410Z,20.31
2022-07-26T04:22:53.955Z,20.28
2022-07-26T04:23:53.908Z,20.28
2022-07-26T04:24:53.460Z,20.24
2022-07-26T04:25:56.407Z,20.28
2022-07-26T04:26:53.380Z,20.26
2022-07-26T04:27:53.315Z,20.24
2022-07-26T04:28:53.387Z,20.24
2022-07-26T04:29:53.318Z,20.24
2022-07-26T04:30:53.391Z,20.23
2022-07-26T04:31:53.686Z,20.17
2022-07-26T04:32:53.308Z,20.16
2022-07-26T04:33:56.905Z,20.14
2022-07-26T04:34:58.757Z,20.13
2022-07-26T04:35:53.243Z,20.11
2022-07-26T04:36:53.264Z,20.14
2022-07-26T04:37:53.285Z,20.11
2022-07-26T04:38:53.246Z,20.10
2022-07-26T04:39:55.057Z,20.06
2022-07-26T04:40:53.208Z,20.06
2022-07-26T04:42:00.599Z,20.05
2022-07-26T04:43:01.896Z,20.03
2022-07-26T04:44:00.306Z,20.02
2022-07-26T04:44:53.509Z,20.01
2022-07-26T04:46:00.295Z,20.01
2022-07-26T04:47:00.318Z,20.02
2022-07-26T04:48:00.218Z,20.01
2022-07-26T04:49:00.869Z,19.98
2022-07-26T04:50:00.281Z,19.98
2022-07-26T04:51:01.293Z,19.96
2022-07-26T04:52:00.206Z,19.96
2022-07-26T04:52:53.033Z,19.98
2022-07-26T04:53:52.964Z,19.96
2022-07-26T04:54:53.193Z,19.99
2022-07-26T04:55:52.993Z,20.03
2022-07-26T04:56:52.950Z,20.06
2022-07-26T04:57:52.941Z,20.08
2022-07-26T04:58:53.178Z,20.13
2022-07-26T05:00:10.004Z,20.17
2022-07-26T05:01:09.439Z,20.18
2022-07-26T05:01:53.953Z,20.21
2022-07-26T05:02:53.037Z,20.24
2022-07-26T05:03:52.879Z,20.32
2022-07-26T05:04:52.880Z,20.42
2022-07-26T05:05:52.893Z,20.55
2022-07-26T05:06:53.307Z,20.67
2022-07-26T05:07:52.801Z,20.77
2022-07-26T05:08:52.814Z,20.91
2022-07-26T05:09:52.808Z,21.03
2022-07-26T05:10:55.610Z,21.12
2022-07-26T05:11:53.189Z,21.19
2022-07-26T05:12:52.720Z,21.24
2022-07-26T05:13:52.708Z,21.27
2022-07-26T05:14:52.690Z,21.32
2022-07-26T05:15:53.013Z,21.42
2022-07-26T05:16:53.309Z,21.52
2022-07-26T05:17:52.671Z,21.64
2022-07-26T05:18:52.641Z,21.71
2022-07-26T05:19:54.400Z,21.83
2022-07-26T05:20:53.049Z,21.96
2022-07-26T05:21:52.616Z,22.07
2022-07-26T05:22:52.599Z,22.20
2022-07-26T05:23:52.589Z,22.31
2022-07-26T05:24:52.569Z,22.42
2022-07-26T05:25:52.959Z,22.51
2022-07-26T05:26:55.443Z,22.60
2022-07-26T05:27:53.579Z,22.65
2022-07-26T05:28:52.515Z,22.76
2022-07-26T05:29:52.500Z,22.83
2022-07-26T05:30:52.925Z,22.95
2022-07-26T05:31:52.477Z,23.04
2022-07-26T05:32:52.467Z,23.04
2022-07-26T05:33:52.490Z,23.02
2022-07-26T05:34:52.474Z,23.01
2022-07-26T05:35:52.807Z,23.01
2022-07-26T05:36:52.422Z,22.98
2022-07-26T05:37:52.427Z,22.97
2022-07-26T05:38:52.390Z,22.95
2022-07-26T05:39:52.379Z,22.98
2022-07-26T05:40:52.800Z,22.82
2022-07-26T05:41:52.344Z,22.80
2022-07-26T05:42:52.335Z,22.80
2022-07-26T05:43:52.325Z,22.82
2022-07-26T05:44:52.644Z,22.82
2022-07-26T05:45:52.339Z,22.83
2022-07-26T05:46:52.296Z,22.88
2022-07-26T05:47:52.274Z,22.94
2022-07-26T05:48:52.307Z,22.98
2022-07-26T05:49:52.237Z,23.07
2022-07-26T05:50:52.677Z,23.00
2022-07-26T05:51:52.208Z,23.05
2022-07-26T05:52:52.220Z,23.16
2022-07-26T05:53:52.216Z,23.38
2022-07-26T05:54:52.225Z,23.48
2022-07-26T05:55:52.616Z,23.35
2022-07-26T05:56:52.147Z,23.39
2022-07-26T05:57:52.148Z,23.47
2022-07-26T05:58:52.137Z,23.61
2022-07-26T05:59:52.125Z,23.63
2022-07-26T06:00:52.106Z,23.51
2022-07-26T06:01:52.604Z,23.50
2022-07-26T06:02:52.177Z,23.46
2022-07-26T06:03:52.152Z,23.35
2022-07-26T06:04:52.201Z,23.36
2022-07-26T06:05:52.037Z,23.60
2022-07-26T06:06:52.065Z,23.97
2022-07-26T06:07:52.458Z,24.10
2022-07-26T06:08:52.026Z,23.88
2022-07-26T06:09:51.985Z,23.83
2022-07-26T06:10:51.993Z,23.78
2022-07-26T06:11:51.973Z,23.80
2022-07-26T06:12:51.948Z,24.10
2022-07-26T06:13:56.504Z,24.16
2022-07-26T06:14:51.936Z,24.24
2022-07-26T06:15:51.934Z,24.09
2022-07-26T06:16:52.069Z,23.95
2022-07-26T06:17:51.925Z,23.98
2022-07-26T06:18:51.897Z,23.87
2022-07-26T06:19:52.306Z,24.02
2022-07-26T06:20:51.856Z,24.30
2022-07-26T06:21:51.834Z,24.60
2022-07-26T06:22:51.827Z,24.52
2022-07-26T06:23:51.849Z,24.53
2022-07-26T06:24:52.239Z,24.58
2022-07-26T06:25:51.823Z,24.62
2022-07-26T06:26:56.636Z,24.55
2022-07-26T06:27:52.765Z,24.61
2022-07-26T06:28:51.746Z,24.50
2022-07-26T06:29:51.838Z,24.21
2022-07-26T06:30:52.432Z,24.05
2022-07-26T06:31:51.785Z,23.85
2022-07-26T06:32:51.758Z,23.58
2022-07-26T06:33:51.685Z,23.42
2022-07-26T06:34:51.763Z,23.25
2022-07-26T06:35:51.685Z,23.17
2022-07-26T06:36:52.016Z,23.28
2022-07-26T06:37:51.657Z,23.38
2022-07-26T06:38:51.655Z,23.53
2022-07-26T06:39:51.646Z,23.65
2022-07-26T06:40:51.626Z,23.47
2022-07-26T06:41:51.900Z,23.54
2022-07-26T06:42:51.576Z,23.40
2022-07-26T06:43:51.565Z,23.17
2022-07-26T06:44:51.586Z,23.09
2022-07-26T06:45:51.588Z,23.02
2022-07-26T06:46:51.973Z,23.07
2022-07-26T06:47:51.538Z,22.95
2022-07-26T06:48:52.774Z,22.82
2022-07-26T06:49:51.515Z,22.75
2022-07-26T06:50:51.884Z,22.82
2022-07-26T06:51:51.496Z,22.79
2022-07-26T06:52:51.454Z,22.88
2022-07-26T06:53:51.440Z,23.00
2022-07-26T06:54:51.445Z,23.12
2022-07-26T06:55:51.424Z,23.32
2022-07-26T06:56:51.775Z,23.35
2022-07-26T06:57:51.405Z,23.28
2022-07-26T06:58:51.374Z,23.47
2022-07-26T06:59:51.355Z,23.76
2022-07-26T07:00:51.405Z,24.52
2022-07-26T07:01:59.834Z,24.57
2022-07-26T07:02:52.323Z,24.50
2022-07-26T07:03:51.316Z,24.98
2022-07-26T07:04:51.356Z,25.21
2022-07-26T07:05:51.313Z,26.25
2022-07-26T07:06:51.737Z,26.21
2022-07-26T07:07:51.265Z,26.40
2022-07-26T07:08:51.266Z,27.10
2022-07-26T07:09:51.236Z,26.77
2022-07-26T07:10:51.226Z,27.94
2022-07-26T07:11:56.219Z,29.00
2022-07-26T07:12:52.224Z,28.52
2022-07-26T07:13:51.180Z,28.67
2022-07-26T07:14:51.185Z,28.33
2022-07-26T07:15:51.343Z,28.27
2022-07-26T07:16:51.523Z,27.59
2022-07-26T07:17:51.173Z,27.21
2022-07-26T07:18:51.134Z,27.04
2022-07-26T07:19:51.257Z,26.91
2022-07-26T07:20:51.550Z,26.97
2022-07-26T07:21:51.185Z,27.24
2022-07-26T07:22:51.084Z,27.12
2022-07-26T07:23:51.065Z,27.28
2022-07-26T07:24:51.052Z,27.28
2022-07-26T07:25:51.035Z,27.34
2022-07-26T07:26:51.335Z,27.34
2022-07-26T07:27:51.348Z,27.28
2022-07-26T07:28:50.995Z,27.37
2022-07-26T07:29:50.985Z,28.48
2022-07-26T07:30:50.975Z,28.25
2022-07-26T07:31:51.468Z,27.69
2022-07-26T07:32:51.984Z,26.32
2022-07-26T07:33:53.429Z,25.69
2022-07-26T07:34:50.925Z,26.51
2022-07-26T07:35:50.944Z,27.22
2022-07-26T07:36:51.281Z,28.21
2022-07-26T07:37:52.557Z,28.49
2022-07-26T07:38:50.951Z,28.51
2022-07-26T07:39:50.899Z,28.17
2022-07-26T07:40:50.854Z,28.18
2022-07-26T07:41:50.865Z,28.83
2022-07-26T07:42:51.152Z,29.27
2022-07-26T07:43:50.841Z,29.64
2022-07-26T07:44:50.824Z,29.24
2022-07-26T07:45:50.787Z,28.73
2022-07-26T07:46:51.343Z,28.78
2022-07-26T07:47:50.785Z,29.31
2022-07-26T07:48:50.803Z,29.53
2022-07-26T07:49:50.745Z,29.65
2022-07-26T07:50:50.805Z,30.42
2022-07-26T07:51:51.106Z,30.95
2022-07-26T07:52:50.751Z,30.97
2022-07-26T07:53:56.473Z,31.01
2022-07-26T07:54:51.675Z,30.73
2022-07-26T07:55:50.693Z,30.86
2022-07-26T07:56:51.260Z,31.09
2022-07-26T07:57:50.664Z,31.65
2022-07-26T07:58:50.723Z,31.29
2022-07-26T07:59:50.636Z,29.78
2022-07-26T08:00:50.615Z,28.61
2022-07-26T08:01:50.962Z,29.02
2022-07-26T08:02:50.596Z,29.31
2022-07-26T08:03:50.964Z,29.23
2022-07-26T08:04:50.566Z,28.36
2022-07-26T08:05:50.773Z,28.44
2022-07-26T08:06:51.574Z,27.97
2022-07-26T08:07:50.837Z,27.75
2022-07-26T08:08:50.587Z,28.21
2022-07-26T08:09:51.171Z,28.92
2022-07-26T08:10:52.370Z,29.45
2022-07-26T08:11:51.311Z,30.00
2022-07-26T08:12:51.373Z,29.53
2022-07-26T08:13:50.483Z,29.08
2022-07-26T08:14:50.496Z,29.23
2022-07-26T08:15:50.923Z,29.80
2022-07-26T08:16:50.522Z,30.38
2022-07-26T08:17:54.104Z,30.62
2022-07-26T08:18:57.971Z,30.80
2022-07-26T08:19:51.404Z,30.95
2022-07-26T08:20:50.897Z,31.43
2022-07-26T08:21:50.386Z,31.93
2022-07-26T08:22:50.348Z,32.01
2022-07-26T08:23:50.338Z,32.10
2022-07-26T08:24:50.346Z,32.26
2022-07-26T08:25:57.083Z,32.40
2022-07-26T08:26:51.307Z,32.45
2022-07-26T08:28:02.829Z,32.81
2022-07-26T08:28:59.686Z,33.32
2022-07-26T08:29:51.268Z,33.54
2022-07-26T08:30:50.298Z,33.42
2022-07-26T08:31:50.312Z,33.72
2022-07-26T08:32:50.277Z,33.14
2022-07-26T08:33:50.267Z,33.38
2022-07-26T08:34:50.378Z,33.63
2022-07-26T08:35:50.247Z,33.94
2022-07-26T08:37:15.227Z,32.87
2022-07-26T08:37:51.207Z,32.18
2022-07-26T08:38:50.179Z,31.73
2022-07-26T08:39:50.177Z,31.04
2022-07-26T08:40:50.654Z,30.54
2022-07-26T08:41:50.184Z,30.32
2022-07-26T08:42:52.504Z,30.10
2022-07-26T08:43:51.886Z,30.47
2022-07-26T08:44:50.355Z,30.53
2022-07-26T08:45:50.553Z,30.35
2022-07-26T08:46:50.121Z,29.85
2022-07-26T08:48:14.862Z,29.18
2022-07-26T08:48:51.092Z,28.86
2022-07-26T08:49:50.515Z,28.40
2022-07-26T08:50:50.077Z,27.96
2022-07-26T08:51:50.077Z,27.62
2022-07-26T08:52:50.164Z,27.72
2022-07-26T08:53:50.064Z,27.88
2022-07-26T08:54:50.435Z,28.00
2022-07-26T08:56:06.479Z,28.27
2022-07-26T08:56:50.986Z,28.55
2022-07-26T08:57:49.962Z,28.81
2022-07-26T08:58:49.966Z,29.04
2022-07-26T08:59:50.266Z,29.24
2022-07-26T09:00:50.550Z,29.31
2022-07-26T09:01:49.918Z,29.39
2022-07-26T09:02:49.894Z,29.39
2022-07-26T09:03:50.042Z,29.24
2022-07-26T09:04:51.924Z,28.52
2022-07-26T09:05:49.948Z,27.65
2022-07-26T09:06:49.856Z,27.06
2022-07-26T09:07:49.835Z,26.95
2022-07-26T09:08:49.855Z,26.88
2022-07-26T09:09:50.143Z,26.63
2022-07-26T09:10:49.851Z,26.40
2022-07-26T09:11:49.857Z,26.35
2022-07-26T09:12:49.916Z,26.50
2022-07-26T09:13:49.767Z,26.72
2022-07-26T09:14:50.182Z,26.94
2022-07-26T09:15:49.826Z,26.97
2022-07-26T09:16:50.331Z,27.21
2022-07-26T09:17:49.721Z,27.49
2022-07-26T09:18:49.736Z,27.72
2022-07-26T09:19:50.362Z,27.79
2022-07-26T09:20:49.937Z,27.92
2022-07-26T09:21:50.446Z,27.97
2022-07-26T09:22:49.654Z,28.11
2022-07-26T09:23:50.018Z,28.18
2022-07-26T09:24:49.646Z,28.11
2022-07-26T09:25:49.609Z,28.24
2022-07-26T09:26:49.598Z,28.36
2022-07-26T09:27:49.625Z,28.54
2022-07-26T09:28:50.067Z,28.74
2022-07-26T09:29:49.569Z,28.03
2022-07-26T09:30:50.457Z,27.72
2022-07-26T09:31:49.587Z,27.62
2022-07-26T09:32:49.566Z,27.31
2022-07-26T09:33:50.053Z,27.02
2022-07-26T09:34:53.177Z,26.94
2022-07-26T09:35:50.645Z,26.97
2022-07-26T09:36:49.516Z,26.82
2022-07-26T09:37:49.504Z,26.48
2022-07-26T09:38:49.690Z,26.43
2022-07-26T09:39:49.505Z,26.37
2022-07-26T09:40:50.840Z,26.28
2022-07-26T09:42:04.771Z,26.17
2022-07-26T09:42:50.405Z,26.05
2022-07-26T09:43:53.645Z,25.95
2022-07-26T09:44:49.385Z,25.90
2022-07-26T09:45:49.359Z,26.20
2022-07-26T09:46:49.398Z,26.47
2022-07-26T09:47:49.388Z,26.62
2022-07-26T09:49:09.945Z,26.82
2022-07-26T09:49:50.364Z,27.00
2022-07-26T09:50:49.346Z,27.29
2022-07-26T09:51:49.316Z,27.59
2022-07-26T09:52:49.607Z,27.57
2022-07-26T09:53:49.280Z,27.40
2022-07-26T09:54:49.298Z,27.28
2022-07-26T09:55:49.266Z,27.25
2022-07-26T09:56:51.191Z,27.00
2022-07-26T09:57:49.519Z,26.77
2022-07-26T09:58:49.194Z,26.87
2022-07-26T09:59:49.225Z,26.72
2022-07-26T10:00:49.265Z,26.72
2022-07-26T10:01:49.181Z,27.06
2022-07-26T10:02:49.591Z,27.37
2022-07-26T10:03:49.164Z,27.70
2022-07-26T10:04:49.147Z,27.97
2022-07-26T10:05:49.098Z,28.24
2022-07-26T10:06:49.103Z,28.52
2022-07-26T10:07:49.478Z,28.77
2022-07-26T10:08:49.077Z,29.02
2022-07-26T10:09:49.054Z,29.26
2022-07-26T10:10:49.033Z,29.28
2022-07-26T10:11:49.046Z,29.45
2022-07-26T10:12:49.350Z,29.48
2022-07-26T10:13:49.004Z,29.21
2022-07-26T10:14:56.371Z,28.92
2022-07-26T10:15:49.009Z,28.62
2022-07-26T10:16:49.049Z,28.22
2022-07-26T10:17:49.667Z,27.78
2022-07-26T10:18:49.135Z,27.94
2022-07-26T10:19:48.942Z,28.15
2022-07-26T10:20:48.941Z,28.17
2022-07-26T10:21:48.995Z,28.18
2022-07-26T10:22:49.354Z,27.82
2022-07-26T10:23:48.889Z,27.29
2022-07-26T10:24:48.892Z,27.18
2022-07-26T10:25:48.872Z,27.12
2022-07-26T10:26:49.212Z,27.13
2022-07-26T10:27:48.856Z,27.00
2022-07-26T10:28:48.890Z,26.87
2022-07-26T10:29:48.815Z,26.94
2022-07-26T10:30:48.794Z,26.82
2022-07-26T10:31:49.220Z,26.81
2022-07-26T10:32:48.793Z,26.99
2022-07-26T10:33:48.755Z,27.03
2022-07-26T10:34:48.753Z,26.97
2022-07-26T10:35:48.757Z,26.85
2022-07-26T10:36:52.097Z,26.73
2022-07-26T10:37:49.739Z,26.66
2022-07-26T10:38:48.694Z,26.63
2022-07-26T10:39:48.692Z,26.54
2022-07-26T10:40:48.667Z,26.76
2022-07-26T10:41:49.102Z,27.02
2022-07-26T10:42:48.718Z,27.21
2022-07-26T10:43:48.633Z,27.36
2022-07-26T10:44:48.616Z,27.46
2022-07-26T10:45:50.143Z,27.37
2022-07-26T10:46:49.076Z,27.46
2022-07-26T10:47:48.584Z,27.78
2022-07-26T10:48:48.652Z,27.97
2022-07-26T10:49:48.576Z,27.93
2022-07-26T10:50:48.551Z,27.69
2022-07-26T10:51:53.082Z,27.18
2022-07-26T10:52:48.534Z,26.95
2022-07-26T10:53:48.553Z,26.97
2022-07-26T10:54:48.515Z,26.94
2022-07-26T10:55:48.483Z,26.81
2022-07-26T10:56:48.834Z,26.81
2022-07-26T10:57:48.483Z,26.82
2022-07-26T10:58:48.444Z,26.88
2022-07-26T10:59:55.747Z,26.75
2022-07-26T11:00:49.894Z,26.33
2022-07-26T11:01:48.457Z,26.30
2022-07-26T11:02:48.459Z,26.13
2022-07-26T11:03:48.383Z,25.98
2022-07-26T11:04:48.361Z,25.94
2022-07-26T11:05:50.957Z,25.87
2022-07-26T11:06:48.366Z,25.92
2022-07-26T11:07:48.330Z,25.82
2022-07-26T11:08:48.569Z,25.76
2022-07-26T11:09:48.302Z,25.72
2022-07-26T11:10:48.335Z,25.54
2022-07-26T11:11:48.303Z,25.43
2022-07-26T11:12:48.327Z,25.61
2022-07-26T11:13:48.293Z,25.76
2022-07-26T11:14:48.539Z,26.01
2022-07-26T11:15:48.664Z,26.39
2022-07-26T11:16:48.219Z,26.52
2022-07-26T11:17:48.322Z,26.82
2022-07-26T11:18:48.193Z,27.13
2022-07-26T11:19:48.181Z,27.40
2022-07-26T11:20:48.600Z,27.66
2022-07-26T11:21:48.296Z,27.92
2022-07-26T11:22:48.370Z,28.17
2022-07-26T11:23:48.133Z,28.11
2022-07-26T11:24:48.115Z,27.99
2022-07-26T11:25:48.194Z,27.79
2022-07-26T11:26:48.096Z,27.47
2022-07-26T11:27:48.071Z,26.97
2022-07-26T11:28:48.065Z,26.63
2022-07-26T11:29:49.156Z,26.70
2022-07-26T11:30:48.079Z,26.89
2022-07-26T11:31:50.673Z,27.17
2022-07-26T11:32:49.322Z,27.37
2022-07-26T11:33:48.594Z,27.70
2022-07-26T11:34:48.052Z,27.90
2022-07-26T11:35:47.995Z,28.24
2022-07-26T11:36:47.983Z,28.55
2022-07-26T11:37:52.033Z,28.85
2022-07-26T11:38:47.964Z,28.98
2022-07-26T11:39:48.122Z,29.11
2022-07-26T11:40:48.462Z,28.83
2022-07-26T11:41:48.023Z,28.77
2022-07-26T11:42:47.893Z,28.30
2022-07-26T11:43:47.883Z,27.88
2022-07-26T11:44:48.329Z,27.50
2022-07-26T11:45:47.892Z,27.14
2022-07-26T11:46:48.068Z,26.88
2022-07-26T11:47:47.905Z,26.77
2022-07-26T11:48:47.989Z,26.70
2022-07-26T11:50:00.287Z,26.72
2022-07-26T11:50:48.788Z,26.75
2022-07-26T11:51:47.771Z,27.04
2022-07-26T11:52:47.754Z,27.28
2022-07-26T11:53:47.852Z,27.59
2022-07-26T11:54:50.032Z,27.84
2022-07-26T11:55:47.784Z,27.94
2022-07-26T11:56:47.770Z,27.97
2022-07-26T11:57:47.739Z,27.96
2022-07-26T11:58:47.683Z,28.14
2022-07-26T11:59:48.079Z,28.11
2022-07-26T12:00:47.675Z,28.04
2022-07-26T12:01:49.828Z,27.97
2022-07-26T12:02:50.347Z,27.51
2022-07-26T12:03:49.286Z,27.06
2022-07-26T12:04:47.684Z,26.73
2022-07-26T12:05:47.718Z,26.77
2022-07-26T12:06:47.584Z,26.63
2022-07-26T12:07:47.579Z,26.58
2022-07-26T12:08:50.408Z,26.40
2022-07-26T12:09:47.586Z,26.33
2022-07-26T12:10:54.730Z,26.33
2022-07-26T12:11:55.679Z,26.43
2022-07-26T12:12:54.550Z,26.40
2022-07-26T12:13:55.321Z,26.69
2022-07-26T12:14:48.497Z,26.87
2022-07-26T12:15:47.629Z,26.82
2022-07-26T12:16:47.460Z,26.73
2022-07-26T12:17:47.459Z,26.50
2022-07-26T12:18:47.775Z,26.33
2022-07-26T12:19:47.419Z,26.37
2022-07-26T12:20:50.667Z,26.67
2022-07-26T12:21:48.473Z,26.82
2022-07-26T12:22:47.400Z,26.99
2022-07-26T12:23:47.914Z,26.95
2022-07-26T12:24:47.452Z,26.91
2022-07-26T12:25:49.425Z,27.04
2022-07-26T12:26:48.847Z,27.21
2022-07-26T12:27:47.582Z,27.28
2022-07-26T12:28:47.769Z,27.44
2022-07-26T12:29:47.389Z,27.62
2022-07-26T12:30:47.524Z,27.65
2022-07-26T12:31:47.330Z,27.63
2022-07-26T12:32:47.297Z,27.74
2022-07-26T12:33:47.668Z,27.85
2022-07-26T12:34:47.269Z,27.82
2022-07-26T12:35:47.343Z,27.87
2022-07-26T12:36:47.550Z,27.74
2022-07-26T12:37:47.914Z,27.57
2022-07-26T12:38:47.783Z,27.49
2022-07-26T12:39:47.170Z,27.67
2022-07-26T12:40:47.170Z,27.75
2022-07-26T12:41:47.170Z,27.96
2022-07-26T12:42:47.437Z,28.00
2022-07-26T12:43:49.095Z,27.97
2022-07-26T12:44:47.098Z,27.87
2022-07-26T12:45:47.141Z,27.81
2022-07-26T12:46:47.130Z,27.81
2022-07-26T12:47:47.071Z,27.88
2022-07-26T12:48:47.575Z,28.00
2022-07-26T12:49:47.119Z,28.07
2022-07-26T12:50:47.646Z,28.00
2022-07-26T12:51:48.360Z,27.81
2022-07-26T12:52:47.428Z,28.06
2022-07-26T12:53:47.110Z,28.30
2022-07-26T12:54:46.971Z,28.41